createdAt,value
2023-01-10T00:02:12.782Z,10.40
2023-01-10T00:04:42.641Z,10.50
2023-01-10T00:07:11.064Z,10.50
2023-01-10T00:09:39.467Z,10.40
2023-01-10T00:12:25.520Z,10.40
2023-01-10T00:14:53.871Z,10.40
2023-01-10T00:17:22.453Z,10.40
2023-01-10T00:19:52.281Z,10.40
2023-01-10T00:22:25.324Z,10.40
2023-01-10T00:24:53.800Z,10.40
2023-01-10T00:27:23.791Z,10.40
2023-01-10T00:29:53.981Z,10.40
2023-01-10T00:32:23.151Z,10.40
2023-01-10T00:34:52.952Z,10.40
2023-01-10T00:37:21.361Z,10.40
2023-01-10T00:39:49.782Z,10.40
2023-01-10T00:42:35.572Z,10.40
2023-01-10T00:45:03.997Z,10.40
2023-01-10T00:47:32.381Z,10.30
2023-01-10T00:50:02.208Z,10.30
2023-01-10T00:52:30.615Z,10.30
2023-01-10T00:54:58.995Z,10.30
2023-01-10T00:57:27.531Z,10.20
2023-01-10T00:59:55.932Z,10.20
2023-01-10T01:02:24.465Z,10.20
2023-01-10T01:04:52.933Z,10.20
2023-01-10T01:07:22.732Z,10.10
2023-01-10T01:10:08.535Z,10.10
2023-01-10T01:12:36.907Z,10.00
2023-01-10T01:15:05.988Z,10.00
2023-01-10T01:17:34.451Z,9.90
2023-01-10T01:20:02.928Z,9.90
2023-01-10T01:22:32.828Z,9.90
2023-01-10T01:25:01.274Z,9.90
2023-01-10T01:27:29.635Z,9.80
2023-01-10T01:29:58.058Z,9.80
2023-01-10T01:32:26.520Z,9.80
2023-01-10T01:34:55.122Z,9.70
2023-01-10T01:37:23.587Z,9.70
2023-01-10T01:39:53.475Z,9.70
2023-01-10T01:42:28.315Z,9.70
2023-01-10T01:45:35.537Z,9.70
2023-01-10T01:48:10.821Z,9.70
2023-01-10T01:50:43.659Z,9.70
2023-01-10T01:53:16.203Z,9.60
2023-01-10T01:55:47.803Z,9.60
2023-01-10T01:58:23.329Z,9.60
2023-01-10T02:00:51.867Z,9.60
2023-01-10T02:03:20.701Z,9.60
2023-01-10T02:05:49.228Z,9.60
2023-01-10T02:08:18.340Z,9.60
2023-01-10T02:10:53.912Z,9.60
2023-01-10T02:13:25.697Z,9.50
2023-01-10T02:15:54.108Z,9.50
2023-01-10T02:18:25.091Z,9.60
2023-01-10T02:21:09.267Z,9.60
2023-01-10T02:24:02.168Z,9.60
2023-01-10T02:26:57.801Z,9.60
2023-01-10T02:29:44.128Z,9.50
2023-01-10T02:32:41.745Z,9.50
2023-01-10T02:35:27.358Z,9.40
2023-01-10T02:38:05.479Z,9.30
2023-01-10T02:40:44.534Z,9.30
2023-01-10T02:43:18.539Z,9.20
2023-01-10T02:45:51.841Z,9.20
2023-01-10T02:48:23.399Z,9.20
2023-01-10T02:50:58.184Z,9.20
2023-01-10T02:53:30.747Z,9.30
2023-01-10T02:56:20.342Z,9.30
2023-01-10T02:59:07.687Z,9.40
2023-01-10T03:01:45.431Z,9.30
2023-01-10T03:04:26.217Z,9.40
2023-01-10T03:07:00.683Z,9.40
2023-01-10T03:09:35.875Z,9.40
2023-01-10T03:12:10.851Z,9.40
2023-01-10T03:14:41.239Z,9.40
2023-01-10T03:17:13.260Z,9.40
2023-01-10T03:19:51.052Z,9.40
2023-01-10T03:22:20.006Z,9.40
2023-01-10T03:24:50.906Z,9.40
2023-01-10T03:27:23.923Z,9.40
2023-01-10T03:29:57.549Z,9.40
2023-01-10T03:32:31.662Z,9.50
2023-01-10T03:35:03.427Z,9.50
2023-01-10T03:37:39.134Z,9.60
2023-01-10T03:40:14.422Z,9.60
2023-01-10T03:43:07.497Z,9.60
2023-01-10T03:45:43.490Z,9.70
2023-01-10T03:48:13.419Z,9.70
2023-01-10T03:50:44.981Z,9.70
2023-01-10T03:53:14.306Z,9.70
2023-01-10T03:55:44.808Z,9.60
2023-01-10T03:58:13.182Z,9.60
2023-01-10T04:00:41.837Z,9.60
2023-01-10T04:03:11.264Z,9.60
2023-01-10T04:05:39.662Z,9.60
2023-01-10T04:08:09.577Z,9.60
2023-01-10T04:10:38.235Z,9.60
2023-01-10T04:13:06.926Z,9.70
2023-01-10T04:15:35.392Z,9.70
2023-01-10T04:18:03.811Z,9.70
2023-01-10T04:20:32.187Z,9.70
2023-01-10T04:23:00.715Z,9.70
2023-01-10T04:25:30.588Z,9.70
2023-01-10T04:27:58.994Z,9.60
2023-01-10T04:30:27.454Z,9.60
2023-01-10T04:32:55.958Z,9.60
2023-01-10T04:35:24.426Z,9.60
2023-01-10T04:37:52.831Z,9.60
2023-01-10T04:40:23.591Z,9.60
2023-01-10T04:42:53.415Z,9.60
2023-01-10T04:45:22.071Z,9.60
2023-01-10T04:47:56.267Z,9.50
2023-01-10T04:50:24.840Z,9.50
2023-01-10T04:52:53.502Z,9.50
2023-01-10T04:55:21.973Z,9.50
2023-01-10T04:57:50.350Z,9.60
2023-01-10T05:00:20.725Z,9.60
2023-01-10T05:02:49.341Z,9.60
2023-01-10T05:05:17.895Z,9.60
2023-01-10T05:07:48.553Z,9.60
2023-01-10T05:10:17.421Z,9.60
2023-01-10T05:12:47.683Z,9.60
2023-01-10T05:15:16.230Z,9.60
2023-01-10T05:17:46.079Z,9.60
2023-01-10T05:20:14.815Z,9.60
2023-01-10T05:22:43.359Z,9.60
2023-01-10T05:25:11.910Z,9.60
2023-01-10T05:27:43.386Z,9.60
2023-01-10T05:30:14.234Z,9.60
2023-01-10T05:32:42.643Z,9.60
2023-01-10T05:35:12.643Z,9.60
2023-01-10T05:37:41.624Z,9.60
2023-01-10T05:40:11.525Z,9.60
2023-01-10T05:42:39.903Z,9.60
2023-01-10T05:45:09.368Z,9.60
2023-01-10T05:47:37.767Z,9.60
2023-01-10T05:50:06.745Z,9.60
2023-01-10T05:52:36.651Z,9.60
2023-01-10T05:55:05.439Z,9.60
2023-01-10T05:57:33.829Z,9.60
2023-01-10T06:00:04.818Z,9.60
2023-01-10T06:02:33.582Z,9.60
2023-01-10T06:05:02.101Z,9.70
2023-01-10T06:07:30.471Z,9.70
2023-01-10T06:10:00.257Z,9.70
2023-01-10T06:12:28.644Z,9.70
2023-01-10T06:14:57.030Z,9.70
2023-01-10T06:17:25.766Z,9.70
2023-01-10T06:19:54.125Z,9.70
2023-01-10T06:22:22.517Z,9.70
2023-01-10T06:24:50.925Z,9.70
2023-01-10T06:27:20.715Z,9.60
2023-01-10T06:29:49.135Z,9.60
2023-01-10T06:32:17.521Z,9.60
2023-01-10T06:34:45.897Z,9.60
2023-01-10T06:37:14.317Z,9.60
2023-01-10T06:39:42.748Z,9.50
2023-01-10T06:42:11.113Z,9.50
2023-01-10T06:44:40.891Z,9.40
2023-01-10T06:47:09.272Z,9.40
2023-01-10T06:49:37.677Z,9.40
2023-01-10T06:52:06.441Z,9.40
2023-01-10T06:54:34.895Z,9.50
2023-01-10T06:57:03.373Z,9.50
2023-01-10T06:59:31.781Z,9.50
2023-01-10T07:02:01.681Z,9.60
2023-01-10T07:04:30.194Z,9.60
2023-01-10T07:06:58.638Z,9.70
2023-01-10T07:09:27.090Z,9.70
2023-01-10T07:11:55.486Z,9.70
2023-01-10T07:14:24.001Z,9.70
2023-01-10T07:16:52.456Z,9.70
2023-01-10T07:19:22.428Z,9.70
2023-01-10T07:21:50.871Z,9.60
2023-01-10T07:24:19.339Z,9.60
2023-01-10T07:26:47.759Z,9.60
2023-01-10T07:29:16.151Z,9.60
2023-01-10T07:31:44.580Z,9.60
2023-01-10T07:34:13.015Z,9.60
2023-01-10T07:36:42.935Z,9.60
2023-01-10T07:39:11.411Z,9.60
2023-01-10T07:41:39.888Z,9.60
2023-01-10T07:44:08.549Z,9.60
2023-01-10T07:46:37.054Z,9.70
2023-01-10T07:49:06.008Z,9.70
2023-01-10T07:51:34.481Z,9.70
2023-01-10T07:54:05.095Z,9.60
2023-01-10T07:56:33.825Z,9.60
2023-01-10T07:59:02.422Z,9.60
2023-01-10T08:01:31.057Z,9.60
2023-01-10T08:03:59.614Z,9.60
2023-01-10T08:06:28.021Z,9.60
2023-01-10T08:08:56.447Z,9.60
2023-01-10T08:11:27.509Z,9.60
2023-01-10T08:13:55.922Z,9.60
2023-01-10T08:16:24.387Z,9.60
2023-01-10T08:18:52.844Z,9.70
2023-01-10T08:21:21.251Z,9.80
2023-01-10T08:23:51.748Z,9.80
2023-01-10T08:26:20.287Z,9.80
2023-01-10T08:28:50.092Z,9.90
2023-01-10T08:31:20.400Z,9.90
2023-01-10T08:33:48.881Z,9.90
2023-01-10T08:36:18.266Z,10.00
2023-01-10T08:38:47.988Z,10.00
2023-01-10T08:41:16.402Z,10.00
2023-01-10T08:43:44.888Z,10.00
2023-01-10T08:46:14.738Z,10.10
2023-01-10T08:48:43.355Z,10.10
2023-01-10T08:51:12.063Z,10.10
2023-01-10T08:53:40.878Z,10.10
2023-01-10T08:56:09.921Z,10.10
2023-01-10T08:58:38.371Z,10.20
2023-01-10T09:01:07.265Z,10.20
2023-01-10T09:03:37.232Z,10.30
2023-01-10T09:06:05.739Z,10.30
2023-01-10T09:08:34.269Z,10.30
2023-01-10T09:11:03.115Z,10.40
2023-01-10T09:13:32.189Z,10.40
2023-01-10T09:16:01.306Z,10.40
2023-01-10T09:18:29.854Z,10.40
2023-01-10T09:20:59.701Z,10.40
2023-01-10T09:23:28.342Z,10.40
2023-01-10T09:25:58.052Z,10.40
2023-01-10T09:28:26.626Z,10.40
2023-01-10T09:30:55.135Z,10.40
2023-01-10T09:33:23.574Z,10.50
2023-01-10T09:35:52.410Z,10.50
2023-01-10T09:38:22.522Z,10.50
2023-01-10T09:41:21.345Z,10.50
2023-01-10T09:44:02.552Z,10.50
2023-01-10T09:46:40.465Z,10.50
2023-01-10T09:49:19.123Z,10.40
2023-01-10T09:51:51.814Z,10.40
2023-01-10T09:54:27.838Z,10.40
2023-01-10T09:56:57.105Z,10.40
2023-01-10T09:59:28.818Z,10.40
2023-01-10T10:02:02.921Z,10.50
2023-01-10T10:04:37.133Z,10.50
2023-01-10T10:07:12.435Z,10.50
2023-01-10T10:09:44.274Z,10.50
2023-01-10T10:12:27.742Z,10.50
2023-01-10T10:15:09.000Z,10.50
2023-01-10T10:17:45.718Z,10.60
2023-01-10T10:20:30.684Z,10.60
2023-01-10T10:23:20.595Z,10.60
2023-01-10T10:26:00.614Z,10.70
2023-01-10T10:28:54.963Z,10.70
2023-01-10T10:31:36.921Z,10.70
2023-01-10T10:34:13.423Z,10.70
2023-01-10T10:36:47.169Z,10.70
2023-01-10T10:39:20.450Z,10.70
2023-01-10T10:41:54.944Z,10.70
2023-01-10T10:44:38.861Z,10.80
2023-01-10T10:47:16.125Z,10.90
2023-01-10T10:49:48.151Z,11.00
2023-01-10T10:52:23.957Z,11.00
2023-01-10T10:54:53.500Z,11.10
2023-01-10T10:57:27.836Z,11.10
2023-01-10T10:59:57.885Z,11.20
2023-01-10T11:02:28.904Z,11.20
2023-01-10T11:04:59.743Z,11.20
2023-01-10T11:07:31.212Z,11.30
2023-01-10T11:10:13.623Z,11.40
2023-01-10T11:12:48.178Z,11.50
2023-01-10T11:15:37.970Z,11.50
2023-01-10T11:18:07.955Z,11.50
2023-01-10T11:20:37.031Z,11.50
2023-01-10T11:23:06.330Z,11.40
2023-01-10T11:25:35.257Z,11.40
2023-01-10T11:28:06.314Z,11.40
2023-01-10T11:30:36.817Z,11.40
2023-01-10T11:33:08.817Z,11.30
2023-01-10T11:35:41.444Z,11.30
2023-01-10T11:38:22.169Z,11.40
2023-01-10T11:40:55.912Z,11.50
2023-01-10T11:43:29.723Z,11.60
2023-01-10T11:46:02.431Z,11.60
2023-01-10T11:49:04.279Z,11.60
2023-01-10T11:51:35.758Z,11.60
2023-01-10T11:54:06.446Z,11.70
2023-01-10T11:56:40.009Z,11.70
2023-01-10T11:59:16.205Z,11.70
2023-01-10T12:01:47.139Z,11.70
2023-01-10T12:04:16.820Z,11.80
2023-01-10T12:06:47.346Z,11.80
2023-01-10T12:09:35.446Z,11.80
2023-01-10T12:12:05.332Z,11.80
2023-01-10T12:14:36.253Z,11.80
2023-01-10T12:17:05.670Z,11.80
2023-01-10T12:19:34.239Z,11.80
2023-01-10T12:22:07.517Z,11.90
2023-01-10T12:24:40.394Z,11.90
2023-01-10T12:27:13.879Z,11.90
2023-01-10T12:29:48.854Z,11.90
2023-01-10T12:32:22.960Z,11.90
2023-01-10T12:34:58.571Z,11.90
2023-01-10T12:37:36.800Z,11.80
2023-01-10T12:40:14.182Z,11.80
2023-01-10T12:43:10.221Z,11.70
2023-01-10T12:45:48.142Z,11.80
2023-01-10T12:48:23.812Z,11.90
2023-01-10T12:50:58.780Z,11.90
2023-01-10T12:53:32.565Z,11.90
2023-01-10T12:56:05.128Z,11.90
2023-01-10T12:58:43.156Z,11.90
2023-01-10T13:01:17.873Z,11.90
2023-01-10T13:03:50.694Z,11.90
2023-01-10T13:06:31.767Z,11.90
2023-01-10T13:09:05.276Z,11.90
2023-01-10T13:11:47.391Z,11.90
2023-01-10T13:14:19.515Z,11.80
2023-01-10T13:16:54.122Z,11.80
2023-01-10T13:19:27.109Z,11.70
2023-01-10T13:22:19.133Z,11.70
2023-01-10T13:24:57.739Z,11.70
2023-01-10T13:27:30.642Z,11.70
2023-01-10T13:29:59.199Z,11.70
2023-01-10T13:32:31.622Z,11.60
2023-01-10T13:35:13.404Z,11.60
2023-01-10T13:37:46.384Z,11.60
2023-01-10T13:40:26.039Z,11.70
2023-01-10T13:43:34.476Z,11.70
2023-01-10T13:46:35.203Z,11.70
2023-01-10T13:49:45.699Z,11.60
2023-01-10T13:52:38.093Z,11.60
2023-01-10T13:55:27.784Z,11.50
2023-01-10T13:57:59.209Z,11.40
2023-01-10T14:01:05.488Z,11.40
2023-01-10T14:03:44.334Z,11.40
2023-01-10T14:06:20.720Z,11.40
2023-01-10T14:08:53.035Z,11.40
2023-01-10T14:11:23.497Z,11.40
2023-01-10T14:13:54.823Z,11.40
2023-01-10T14:16:36.373Z,11.50
2023-01-10T14:19:08.424Z,11.50
2023-01-10T14:21:45.374Z,11.40
2023-01-10T14:24:25.659Z,11.30
2023-01-10T14:26:57.475Z,11.20
2023-01-10T14:29:30.761Z,11.10
2023-01-10T14:32:01.260Z,11.00
2023-01-10T14:34:32.147Z,11.00
2023-01-10T14:37:07.451Z,10.90
2023-01-10T14:39:36.973Z,10.90
2023-01-10T14:42:09.973Z,10.90
2023-01-10T14:44:45.968Z,10.90
2023-01-10T14:47:29.349Z,10.90
2023-01-10T14:49:59.125Z,10.90
2023-01-10T14:52:30.089Z,10.80
2023-01-10T14:55:05.834Z,10.70
2023-01-10T14:57:34.340Z,10.70
2023-01-10T15:00:08.064Z,10.70
2023-01-10T15:02:40.000Z,10.70
2023-01-10T15:05:16.781Z,10.70
2023-01-10T15:07:46.621Z,10.70
2023-01-10T15:10:24.133Z,10.70
2023-01-10T15:12:55.885Z,10.70
2023-01-10T15:15:31.282Z,10.70
2023-01-10T15:18:06.393Z,10.60
2023-01-10T15:20:35.931Z,10.50
2023-01-10T15:23:05.861Z,10.50
2023-01-10T15:25:38.177Z,10.40
2023-01-10T15:28:14.885Z,10.40
2023-01-10T15:30:43.926Z,10.40
2023-01-10T15:33:16.793Z,10.30
2023-01-10T15:35:45.461Z,10.30
2023-01-10T15:38:17.838Z,10.20
2023-01-10T15:40:59.226Z,10.20
2023-01-10T15:43:30.327Z,10.20
2023-01-10T15:46:00.575Z,10.20
2023-01-10T15:48:33.603Z,10.20
2023-01-10T15:51:06.674Z,10.20
2023-01-10T15:54:03.360Z,10.20
2023-01-10T15:56:36.042Z,10.20
2023-01-10T15:59:05.471Z,10.20
2023-01-10T16:01:35.357Z,10.10
2023-01-10T16:04:05.893Z,10.10
2023-01-10T16:06:36.098Z,10.00
2023-01-10T16:09:09.671Z,10.00
2023-01-10T16:11:59.194Z,10.10
2023-01-10T16:14:32.589Z,10.10
2023-01-10T16:17:00.976Z,10.10
2023-01-10T16:19:29.695Z,10.20
2023-01-10T16:22:00.230Z,10.20
2023-01-10T16:24:31.865Z,10.30
2023-01-10T16:27:03.462Z,10.30
2023-01-10T16:29:31.897Z,10.30
2023-01-10T16:32:00.581Z,10.40
2023-01-10T16:34:29.037Z,10.40
2023-01-10T16:36:57.381Z,10.40
2023-01-10T16:39:25.848Z,10.40
2023-01-10T16:42:13.306Z,10.40
2023-01-10T16:44:42.001Z,10.40
2023-01-10T16:47:10.380Z,10.30
2023-01-10T16:49:38.792Z,10.20
2023-01-10T16:52:07.189Z,10.20
2023-01-10T16:54:37.728Z,10.20
2023-01-10T16:57:07.630Z,10.20
2023-01-10T16:59:36.044Z,10.20
2023-01-10T17:02:04.770Z,10.20
2023-01-10T17:04:35.661Z,10.20
2023-01-10T17:07:04.228Z,10.20
2023-01-10T17:09:32.971Z,10.30
2023-01-10T17:12:04.934Z,10.30
2023-01-10T17:14:36.991Z,10.20
2023-01-10T17:17:06.009Z,10.20
2023-01-10T17:19:34.450Z,10.20
2023-01-10T17:22:02.841Z,10.20
2023-01-10T17:24:31.195Z,10.20
2023-01-10T17:26:59.583Z,10.20
2023-01-10T17:29:28.511Z,10.20
2023-01-10T17:31:58.397Z,10.10
2023-01-10T17:34:26.859Z,10.10
2023-01-10T17:36:55.330Z,10.10
2023-01-10T17:39:24.496Z,10.10
2023-01-10T17:41:52.978Z,10.10
2023-01-10T17:44:21.375Z,10.10
2023-01-10T17:46:49.797Z,10.10
2023-01-10T17:49:19.626Z,10.10
2023-01-10T17:51:48.009Z,10.00
2023-01-10T17:54:16.539Z,10.00
2023-01-10T17:56:44.962Z,10.00
2023-01-10T17:59:13.366Z,10.00
2023-01-10T18:01:42.369Z,10.00
2023-01-10T18:04:11.416Z,10.00
2023-01-10T18:06:41.269Z,10.00
2023-01-10T18:09:09.715Z,9.90
2023-01-10T18:11:38.184Z,9.90
2023-01-10T18:14:20.393Z,9.90
2023-01-10T18:16:48.805Z,9.90
2023-01-10T18:19:17.247Z,9.90
2023-01-10T18:21:48.655Z,9.90
2023-01-10T18:24:17.079Z,9.90
2023-01-10T18:26:45.492Z,9.90
2023-01-10T18:29:13.931Z,9.90
2023-01-10T18:31:42.373Z,9.90
2023-01-10T18:34:10.900Z,9.90
2023-01-10T18:36:40.211Z,9.90
2023-01-10T18:39:10.045Z,9.80
2023-01-10T18:41:38.523Z,9.80
2023-01-10T18:44:07.120Z,9.80
2023-01-10T18:46:35.517Z,9.70
2023-01-10T18:49:03.910Z,9.70
2023-01-10T18:51:32.301Z,9.60
2023-01-10T18:54:01.265Z,9.60
2023-01-10T18:56:31.432Z,9.50
2023-01-10T18:59:00.043Z,9.50
2023-01-10T19:01:29.415Z,9.40
2023-01-10T19:03:59.079Z,9.40
2023-01-10T19:06:27.458Z,9.40
2023-01-10T19:08:55.832Z,9.30
2023-01-10T19:11:24.463Z,9.30
2023-01-10T19:13:55.170Z,9.30
2023-01-10T19:16:25.333Z,9.20
2023-01-10T19:18:55.829Z,9.20
2023-01-10T19:21:25.377Z,9.10
2023-01-10T19:23:55.919Z,9.10
2023-01-10T19:26:25.337Z,9.10
2023-01-10T19:28:55.480Z,9.00
2023-01-10T19:31:26.408Z,9.00
2023-01-10T19:33:55.302Z,9.00
2023-01-10T19:36:24.720Z,8.90
2023-01-10T19:38:56.887Z,9.00
2023-01-10T19:41:25.629Z,8.90
2023-01-10T19:43:58.469Z,8.90
2023-01-10T19:46:27.416Z,8.80
2023-01-10T19:48:57.534Z,8.80
2023-01-10T19:51:26.539Z,8.70
2023-01-10T19:53:55.020Z,8.70
2023-01-10T19:56:23.534Z,8.70
2023-01-10T19:58:52.545Z,8.70
2023-01-10T20:01:24.668Z,8.60
2023-01-10T20:03:55.400Z,8.60
2023-01-10T20:06:26.680Z,8.60
2023-01-10T20:08:55.529Z,8.50
2023-01-10T20:11:26.552Z,8.50
2023-01-10T20:13:55.773Z,8.50
2023-01-10T20:16:26.616Z,8.40
2023-01-10T20:18:55.202Z,8.40
2023-01-10T20:21:24.149Z,8.40
2023-01-10T20:23:52.887Z,8.40
2023-01-10T20:26:22.722Z,8.40
2023-01-10T20:28:51.751Z,8.40
2023-01-10T20:31:22.879Z,8.40
2023-01-10T20:33:53.178Z,8.40
2023-01-10T20:36:24.027Z,8.40
2023-01-10T20:38:53.111Z,8.30
2023-01-10T20:41:22.888Z,8.30
2023-01-10T20:43:52.108Z,8.30
2023-01-10T20:46:22.142Z,8.30
2023-01-10T20:48:50.930Z,8.20
2023-01-10T20:51:22.738Z,8.20
2023-01-10T20:53:51.610Z,8.20
2023-01-10T20:56:21.760Z,8.20
2023-01-10T20:58:51.474Z,8.10
2023-01-10T21:01:33.147Z,8.10
2023-01-10T21:04:03.616Z,8.10
2023-01-10T21:06:33.965Z,8.10
2023-01-10T21:09:02.854Z,8.10
2023-01-10T21:11:31.282Z,8.10
2023-01-10T21:13:59.667Z,8.00
2023-01-10T21:16:28.153Z,8.00
2023-01-10T21:18:56.567Z,8.00
2023-01-10T21:21:25.221Z,7.90
2023-01-10T21:23:56.175Z,7.90
2023-01-10T21:26:24.936Z,7.90
2023-01-10T21:28:53.303Z,7.90
2023-01-10T21:31:23.111Z,7.80
2023-01-10T21:33:51.664Z,7.80
2023-01-10T21:36:20.031Z,7.80
2023-01-10T21:38:49.283Z,7.80
2023-01-10T21:41:41.393Z,7.80
2023-01-10T21:44:10.302Z,7.80
2023-01-10T21:46:38.807Z,7.70
2023-01-10T21:49:07.364Z,7.70
2023-01-10T21:51:35.715Z,7.70
2023-01-10T21:54:04.164Z,7.70
2023-01-10T21:56:34.208Z,7.70
2023-01-10T21:59:02.617Z,7.70
2023-01-10T22:01:31.275Z,7.60
2023-01-10T22:03:59.771Z,7.60
2023-01-10T22:06:28.156Z,7.60
2023-01-10T22:08:56.658Z,7.60
2023-01-10T22:11:25.036Z,7.60
2023-01-10T22:13:55.108Z,7.60
2023-01-10T22:16:23.493Z,7.60
2023-01-10T22:18:51.917Z,7.50
2023-01-10T22:21:20.291Z,7.50
2023-01-10T22:23:48.922Z,7.50
2023-01-10T22:26:18.041Z,7.50
2023-01-10T22:28:46.477Z,7.50
2023-01-10T22:31:16.359Z,7.50
2023-01-10T22:33:44.765Z,7.50
2023-01-10T22:36:16.715Z,7.50
2023-01-10T22:38:45.781Z,7.50
2023-01-10T22:41:17.365Z,7.50
2023-01-10T22:43:46.217Z,7.40
2023-01-10T22:46:16.679Z,7.50
2023-01-10T22:48:45.578Z,7.50
2023-01-10T22:51:14.496Z,7.50
2023-01-10T22:53:43.197Z,7.50
2023-01-10T22:56:13.050Z,7.50
2023-01-10T22:58:42.923Z,7.50
2023-01-10T23:01:11.296Z,7.50
2023-01-10T23:03:41.137Z,7.50
2023-01-10T23:06:09.944Z,7.50
2023-01-10T23:08:39.729Z,7.50
2023-01-10T23:11:08.756Z,7.50
2023-01-10T23:13:37.660Z,7.50
2023-01-10T23:16:08.874Z,7.50
2023-01-10T23:18:37.274Z,7.40
2023-01-10T23:21:07.692Z,7.50
2023-01-10T23:23:36.309Z,7.50
2023-01-10T23:26:07.033Z,7.50
2023-01-10T23:28:37.707Z,7.50
2023-01-10T23:31:07.187Z,7.50
2023-01-10T23:33:35.740Z,7.50
2023-01-10T23:36:05.030Z,7.50
2023-01-10T23:38:34.847Z,7.60
2023-01-10T23:41:03.266Z,7.60
2023-01-10T23:43:31.790Z,7.60
2023-01-10T23:46:02.283Z,7.50
2023-01-10T23:48:30.923Z,7.50
2023-01-10T23:50:59.384Z,7.50
2023-01-10T23:53:27.810Z,7.50
2023-01-10T23:55:58.269Z,7.50
2023-01-10T23:58:26.711Z,7.50
